createdAt,value
2023-02-11T00:02:01.998Z,86.48
2023-02-11T00:05:05.719Z,86.93
2023-02-11T00:08:08.418Z,86.77
2023-02-11T00:11:16.764Z,87.04
2023-02-11T00:14:19.220Z,87.64
2023-02-11T00:17:22.267Z,87.68
2023-02-11T00:20:25.603Z,87.47
2023-02-11T00:23:28.918Z,87.01
2023-02-11T00:26:35.178Z,87.31
2023-02-11T00:29:39.685Z,87.21
2023-02-11T00:32:42.692Z,87.41
2023-02-11T00:35:45.760Z,87.87
2023-02-11T00:38:49.959Z,88.62
2023-02-11T00:41:53.050Z,89.07
2023-02-11T00:44:56.974Z,89.67
2023-02-11T00:48:00.031Z,89.38
2023-02-11T00:51:04.984Z,89.91
2023-02-11T00:54:08.774Z,89.00
2023-02-11T00:57:11.708Z,88.71
2023-02-11T01:00:15.546Z,88.19
2023-02-11T01:03:18.568Z,88.45
2023-02-11T01:06:21.596Z,88.80
2023-02-11T01:09:24.500Z,89.08
2023-02-11T01:12:27.293Z,88.55
2023-02-11T01:15:33.729Z,88.49
2023-02-11T01:18:38.108Z,88.52
2023-02-11T01:21:42.253Z,89.29
2023-02-11T01:24:44.991Z,88.58
2023-02-11T01:27:47.485Z,88.83
2023-02-11T01:30:50.886Z,89.20
2023-02-11T01:33:54.262Z,89.50
2023-02-11T01:37:00.365Z,89.69
2023-02-11T01:40:07.481Z,89.49
2023-02-11T01:43:11.589Z,89.43
2023-02-11T01:46:37.450Z,89.41
2023-02-11T01:49:48.993Z,88.69
2023-02-11T01:52:51.474Z,88.10
2023-02-11T01:56:14.815Z,88.01
2023-02-11T01:59:23.884Z,87.35
2023-02-11T02:02:34.721Z,87.17
2023-02-11T02:05:58.576Z,88.53
2023-02-11T02:09:16.726Z,89.18
2023-02-11T02:12:21.195Z,88.97
2023-02-11T02:15:34.320Z,88.41
2023-02-11T02:18:53.993Z,88.78
2023-02-11T02:22:25.127Z,89.42
2023-02-11T02:25:58.540Z,89.60
2023-02-11T02:29:31.485Z,89.30
2023-02-11T02:33:22.412Z,88.80
2023-02-11T02:36:38.019Z,88.05
2023-02-11T02:39:41.007Z,88.25
2023-02-11T02:42:44.631Z,89.18
2023-02-11T02:45:48.672Z,89.84
2023-02-11T02:48:54.418Z,89.37
2023-02-11T02:52:14.565Z,90.16
2023-02-11T02:55:26.760Z,90.77
2023-02-11T02:58:36.348Z,91.52
2023-02-11T03:01:45.849Z,91.64
2023-02-11T03:04:55.295Z,90.96
2023-02-11T03:08:16.519Z,90.34
2023-02-11T03:11:22.270Z,91.28
2023-02-11T03:14:28.111Z,91.91
2023-02-11T03:17:35.097Z,91.00
2023-02-11T03:20:42.138Z,90.55
2023-02-11T03:23:52.917Z,90.94
2023-02-11T03:26:59.547Z,91.53
2023-02-11T03:30:13.491Z,91.46
2023-02-11T03:33:48.804Z,92.06
2023-02-11T03:36:57.255Z,92.32
2023-02-11T03:40:05.810Z,91.58
2023-02-11T03:43:19.295Z,91.36
2023-02-11T03:46:31.563Z,92.09
2023-02-11T03:49:38.726Z,92.04
2023-02-11T03:52:42.074Z,92.78
2023-02-11T03:55:47.830Z,92.99
2023-02-11T03:58:53.038Z,93.08
2023-02-11T04:01:56.618Z,93.07
2023-02-11T04:05:00.000Z,92.90
2023-02-11T04:08:03.880Z,92.52
2023-02-11T04:11:08.335Z,92.24
2023-02-11T04:14:11.298Z,91.87
2023-02-11T04:17:17.551Z,91.64
2023-02-11T04:20:20.577Z,91.51
2023-02-11T04:23:23.709Z,91.30
2023-02-11T04:26:26.435Z,90.89
2023-02-11T04:29:29.967Z,91.32
2023-02-11T04:32:33.146Z,91.23
2023-02-11T04:35:36.401Z,91.15
2023-02-11T04:38:40.134Z,91.06
2023-02-11T04:41:43.094Z,91.14
2023-02-11T04:44:45.900Z,91.10
2023-02-11T04:47:48.708Z,91.28
2023-02-11T04:50:51.232Z,91.25
2023-02-11T04:53:55.000Z,90.94
2023-02-11T04:56:57.944Z,91.08
2023-02-11T05:00:03.184Z,91.04
2023-02-11T05:03:06.005Z,91.20
2023-02-11T05:06:11.240Z,91.15
2023-02-11T05:09:14.721Z,91.46
2023-02-11T05:12:17.751Z,91.28
2023-02-11T05:15:20.779Z,91.10
2023-02-11T05:18:24.115Z,90.85
2023-02-11T05:21:30.078Z,90.74
2023-02-11T05:24:33.307Z,90.58
2023-02-11T05:27:36.419Z,90.39
2023-02-11T05:30:39.434Z,90.57
2023-02-11T05:33:47.247Z,91.08
2023-02-11T05:36:50.210Z,90.94
2023-02-11T05:39:53.690Z,91.07
2023-02-11T05:42:57.359Z,91.04
2023-02-11T05:46:00.954Z,91.10
2023-02-11T05:49:08.088Z,91.22
2023-02-11T05:52:11.385Z,91.16
2023-02-11T05:55:14.266Z,91.35
2023-02-11T05:58:16.918Z,91.35
2023-02-11T06:01:27.831Z,91.32
2023-02-11T06:04:33.602Z,91.23
2023-02-11T06:07:38.230Z,90.99
2023-02-11T06:10:43.961Z,90.67
2023-02-11T06:13:47.974Z,90.08
2023-02-11T06:16:51.976Z,89.56
2023-02-11T06:19:54.708Z,89.58
2023-02-11T06:22:57.757Z,89.01
2023-02-11T06:26:07.880Z,88.70
2023-02-11T06:29:12.949Z,88.25
2023-02-11T06:32:39.510Z,87.56
2023-02-11T06:35:47.878Z,87.35
2023-02-11T06:38:52.546Z,85.52
2023-02-11T06:41:55.874Z,83.83
2023-02-11T06:45:09.527Z,82.47
2023-02-11T06:48:17.019Z,81.32
2023-02-11T06:51:21.643Z,79.13
2023-02-11T06:54:24.910Z,75.61
2023-02-11T06:57:28.824Z,72.28
2023-02-11T07:00:35.407Z,71.58
2023-02-11T07:03:43.201Z,70.32
2023-02-11T07:06:46.198Z,67.80
2023-02-11T07:09:55.529Z,67.00
2023-02-11T07:13:05.023Z,67.48
2023-02-11T07:16:17.212Z,66.71
2023-02-11T07:19:21.239Z,68.31
2023-02-11T07:22:26.061Z,68.34
2023-02-11T07:25:30.092Z,70.59
2023-02-11T07:28:41.810Z,71.44
2023-02-11T07:31:47.841Z,71.80
2023-02-11T07:34:52.998Z,72.13
2023-02-11T07:37:58.108Z,71.63
2023-02-11T07:41:08.380Z,72.09
2023-02-11T07:44:18.859Z,72.43
2023-02-11T07:47:23.011Z,71.94
2023-02-11T07:50:26.301Z,71.44
2023-02-11T07:53:33.049Z,70.81
2023-02-11T07:56:38.230Z,69.79
2023-02-11T07:59:47.869Z,66.91
2023-02-11T08:02:52.047Z,67.61
2023-02-11T08:05:55.314Z,66.87
2023-02-11T08:09:09.787Z,67.60
2023-02-11T08:12:13.977Z,67.79
2023-02-11T08:15:26.769Z,67.95
2023-02-11T08:18:31.818Z,68.21
2023-02-11T08:21:44.367Z,68.60
2023-02-11T08:24:58.401Z,68.56
2023-02-11T08:28:04.391Z,69.15
2023-02-11T08:31:24.930Z,69.12
2023-02-11T08:34:28.840Z,69.27
2023-02-11T08:37:33.193Z,68.50
2023-02-11T08:40:36.537Z,68.55
2023-02-11T08:43:43.025Z,68.01
2023-02-11T08:46:49.476Z,67.46
2023-02-11T08:49:54.621Z,67.10
2023-02-11T08:53:08.253Z,67.08
2023-02-11T08:56:23.879Z,67.63
2023-02-11T08:59:29.089Z,67.79
2023-02-11T09:02:34.142Z,68.03
2023-02-11T09:05:47.038Z,68.64
2023-02-11T09:08:54.084Z,68.84
2023-02-11T09:12:02.820Z,69.00
2023-02-11T09:15:09.959Z,69.27
2023-02-11T09:18:17.739Z,68.63
2023-02-11T09:21:30.875Z,68.58
2023-02-11T09:24:41.765Z,67.61
2023-02-11T09:27:46.829Z,67.36
2023-02-11T09:30:54.551Z,66.77
2023-02-11T09:34:04.761Z,65.80
2023-02-11T09:37:11.067Z,61.20
2023-02-11T09:40:15.811Z,57.30
2023-02-11T09:43:42.870Z,54.06
2023-02-11T09:47:03.817Z,51.74
2023-02-11T09:50:26.760Z,49.95
2023-02-11T09:53:43.006Z,51.30
2023-02-11T09:56:46.469Z,49.53
2023-02-11T09:59:49.977Z,51.99
2023-02-11T10:03:20.296Z,52.88
2023-02-11T10:06:42.841Z,52.42
2023-02-11T10:09:56.802Z,53.76
2023-02-11T10:13:04.837Z,52.23
2023-02-11T10:16:29.818Z,51.08
2023-02-11T10:20:19.021Z,49.79
2023-02-11T10:23:29.958Z,50.02
2023-02-11T10:26:44.957Z,51.79
2023-02-11T10:30:05.886Z,52.68
2023-02-11T10:33:37.029Z,52.53
2023-02-11T10:36:51.753Z,52.48
2023-02-11T10:39:58.994Z,52.64
2023-02-11T10:43:06.260Z,52.51
2023-02-11T10:46:24.482Z,50.72
2023-02-11T10:49:42.014Z,49.56
2023-02-11T10:53:13.810Z,48.38
2023-02-11T10:56:33.760Z,46.83
2023-02-11T10:59:40.378Z,46.72
2023-02-11T11:02:44.775Z,47.48
2023-02-11T11:06:00.773Z,48.49
2023-02-11T11:09:04.951Z,49.15
2023-02-11T11:12:48.907Z,49.62
2023-02-11T11:16:15.791Z,50.45
2023-02-11T11:19:26.875Z,50.19
2023-02-11T11:22:30.454Z,49.47
2023-02-11T11:25:37.779Z,49.27
2023-02-11T11:29:06.979Z,48.41
2023-02-11T11:32:32.928Z,48.41
2023-02-11T11:35:36.318Z,48.70
2023-02-11T11:38:58.814Z,49.09
2023-02-11T11:42:08.036Z,49.96
2023-02-11T11:45:25.771Z,50.15
2023-02-11T11:48:50.900Z,49.66
2023-02-11T11:52:27.841Z,49.77
2023-02-11T11:55:42.576Z,50.53
2023-02-11T11:58:54.808Z,50.82
2023-02-11T12:02:35.846Z,51.47
2023-02-11T12:06:03.242Z,49.96
2023-02-11T12:09:24.774Z,49.20
2023-02-11T12:12:32.772Z,49.35
2023-02-11T12:15:45.054Z,49.19
2023-02-11T12:19:33.425Z,49.68
2023-02-11T12:23:13.876Z,49.42
2023-02-11T12:26:23.388Z,49.45
2023-02-11T12:30:01.953Z,49.16
2023-02-11T12:33:34.043Z,49.09
2023-02-11T12:36:55.913Z,48.83
2023-02-11T12:40:35.025Z,48.75
2023-02-11T12:43:53.436Z,48.55
2023-02-11T12:47:40.165Z,48.20
2023-02-11T12:51:16.750Z,48.27
2023-02-11T12:54:47.888Z,47.82
2023-02-11T12:58:00.862Z,46.97
2023-02-11T13:01:23.892Z,47.84
2023-02-11T13:04:37.782Z,47.09
2023-02-11T13:07:50.840Z,47.11
2023-02-11T13:11:11.030Z,47.82
2023-02-11T13:14:38.917Z,46.77
2023-02-11T13:18:01.141Z,46.89
2023-02-11T13:21:17.966Z,47.10
2023-02-11T13:24:37.152Z,47.24
2023-02-11T13:27:44.775Z,48.00
2023-02-11T13:30:52.555Z,47.92
2023-02-11T13:33:56.527Z,47.94
2023-02-11T13:37:07.830Z,48.28
2023-02-11T13:40:25.300Z,47.84
2023-02-11T13:43:30.348Z,47.65
2023-02-11T13:46:56.756Z,47.95
2023-02-11T13:50:05.670Z,47.88
2023-02-11T13:53:18.685Z,47.25
2023-02-11T13:56:30.276Z,47.71
2023-02-11T13:59:42.817Z,48.01
2023-02-11T14:03:29.891Z,47.74
2023-02-11T14:07:07.473Z,48.20
2023-02-11T14:10:49.024Z,48.38
2023-02-11T14:14:22.772Z,48.05
2023-02-11T14:17:33.243Z,47.99
2023-02-11T14:20:46.870Z,47.92
2023-02-11T14:24:20.858Z,48.22
2023-02-11T14:28:08.923Z,47.74
2023-02-11T14:31:59.815Z,47.12
2023-02-11T14:35:29.938Z,47.70
2023-02-11T14:38:55.872Z,47.53
2023-02-11T14:42:08.217Z,47.55
2023-02-11T14:45:21.553Z,47.85
2023-02-11T14:48:35.139Z,47.89
2023-02-11T14:51:41.449Z,48.04
2023-02-11T14:54:52.892Z,48.27
2023-02-11T14:58:21.415Z,48.28
2023-02-11T15:01:37.874Z,48.63
2023-02-11T15:04:51.808Z,48.23
2023-02-11T15:08:10.773Z,48.55
2023-02-11T15:11:25.561Z,48.77
2023-02-11T15:14:39.728Z,48.65
2023-02-11T15:17:46.846Z,48.97
2023-02-11T15:20:55.778Z,49.46
2023-02-11T15:24:03.213Z,49.64
2023-02-11T15:27:19.729Z,50.40
2023-02-11T15:30:36.303Z,50.57
2023-02-11T15:33:46.967Z,50.83
2023-02-11T15:36:50.396Z,51.04
2023-02-11T15:40:02.899Z,51.37
2023-02-11T15:43:11.169Z,51.22
2023-02-11T15:46:23.973Z,51.25
2023-02-11T15:49:33.541Z,51.69
2023-02-11T15:52:44.676Z,51.66
2023-02-11T15:56:17.165Z,51.80
2023-02-11T15:59:40.225Z,52.09
2023-02-11T16:02:47.272Z,52.38
2023-02-11T16:06:00.830Z,52.76
2023-02-11T16:09:13.852Z,52.62
2023-02-11T16:12:29.807Z,53.16
2023-02-11T16:15:38.804Z,53.14
2023-02-11T16:19:04.273Z,53.27
2023-02-11T16:22:13.870Z,53.64
2023-02-11T16:25:23.859Z,54.10
2023-02-11T16:28:28.174Z,54.54
2023-02-11T16:31:51.719Z,55.05
2023-02-11T16:35:02.851Z,55.60
2023-02-11T16:38:06.657Z,56.18
2023-02-11T16:41:19.566Z,56.58
2023-02-11T16:44:30.519Z,57.09
2023-02-11T16:47:37.815Z,57.20
2023-02-11T16:50:51.432Z,57.66
2023-02-11T16:54:02.691Z,58.00
2023-02-11T16:57:18.809Z,57.84
2023-02-11T17:00:30.186Z,58.10
2023-02-11T17:03:40.124Z,57.88
2023-02-11T17:06:55.967Z,57.93
2023-02-11T17:10:03.095Z,57.97
2023-02-11T17:13:08.713Z,58.19
2023-02-11T17:16:19.075Z,58.17
2023-02-11T17:19:27.757Z,57.95
2023-02-11T17:26:16.978Z,57.48
2023-02-11T17:29:25.134Z,57.52
2023-02-11T17:32:29.940Z,57.58
2023-02-11T17:35:47.707Z,57.62
2023-02-11T17:39:02.166Z,57.54
2023-02-11T17:42:23.843Z,57.34
2023-02-11T17:45:35.005Z,57.41
2023-02-11T17:48:53.957Z,57.55
2023-02-11T17:51:58.485Z,57.54
2023-02-11T17:55:16.684Z,57.85
2023-02-11T17:58:28.777Z,57.85
2023-02-11T18:01:37.169Z,58.27
2023-02-11T18:04:46.150Z,58.74
2023-02-11T18:08:02.839Z,58.53
2023-02-11T18:11:13.841Z,58.79
2023-02-11T18:14:23.140Z,59.06
2023-02-11T18:17:41.101Z,58.68
2023-02-11T18:20:59.874Z,59.10
2023-02-11T18:24:18.827Z,60.25
2023-02-11T18:27:40.752Z,60.20
2023-02-11T18:30:59.784Z,60.48
2023-02-11T18:34:11.839Z,60.70
2023-02-11T18:37:33.784Z,60.66
2023-02-11T18:40:43.727Z,60.70
2023-02-11T18:43:57.077Z,60.22
2023-02-11T18:47:07.652Z,60.41
2023-02-11T18:50:25.746Z,60.21
2023-02-11T18:53:33.070Z,60.35
2023-02-11T18:56:52.690Z,60.58
2023-02-11T19:00:04.873Z,60.85
2023-02-11T19:03:16.941Z,61.37
2023-02-11T19:06:30.767Z,61.30
2023-02-11T19:09:36.978Z,61.38
2023-02-11T19:12:47.775Z,61.67
2023-02-11T19:16:14.943Z,61.82
2023-02-11T19:19:31.658Z,62.17
2023-02-11T19:22:47.827Z,62.49
2023-02-11T19:25:51.839Z,62.47
2023-02-11T19:29:05.791Z,62.18
2023-02-11T19:32:22.650Z,61.99
2023-02-11T19:35:35.788Z,61.86
2023-02-11T19:38:45.979Z,61.13
2023-02-11T19:41:54.817Z,60.87
2023-02-11T19:45:13.685Z,60.44
2023-02-11T19:48:20.027Z,59.86
2023-02-11T19:51:24.340Z,59.21
2023-02-11T19:54:38.968Z,58.95
2023-02-11T19:57:48.679Z,58.75
2023-02-11T20:00:54.055Z,58.65
2023-02-11T20:03:59.760Z,58.38
2023-02-11T20:07:04.511Z,58.38
2023-02-11T20:10:08.868Z,58.60
2023-02-11T20:13:12.163Z,58.89
2023-02-11T20:16:47.391Z,58.95
2023-02-11T20:19:53.856Z,59.23
2023-02-11T20:22:58.714Z,59.50
2023-02-11T20:26:09.975Z,59.41
2023-02-11T20:29:15.358Z,59.66
2023-02-11T20:32:21.858Z,59.84
2023-02-11T20:35:25.571Z,60.11
2023-02-11T20:38:29.754Z,60.34
2023-02-11T20:41:44.719Z,60.56
2023-02-11T20:44:54.091Z,60.75
2023-02-11T20:48:07.689Z,60.75
2023-02-11T20:51:14.945Z,60.86
2023-02-11T20:54:26.868Z,61.09
2023-02-11T20:57:33.768Z,61.45
2023-02-11T21:00:39.893Z,61.60
2023-02-11T21:03:52.496Z,61.59
2023-02-11T21:07:08.785Z,61.67
2023-02-11T21:10:15.941Z,61.88
2023-02-11T21:13:27.933Z,62.21
2023-02-11T21:16:35.873Z,62.54
2023-02-11T21:19:47.690Z,62.78
2023-02-11T21:23:01.894Z,63.09
2023-02-11T21:26:11.828Z,63.71
2023-02-11T21:29:19.750Z,63.99
2023-02-11T21:32:28.222Z,64.16
2023-02-11T21:35:42.526Z,64.71
2023-02-11T21:38:53.001Z,64.44
2023-02-11T21:42:09.788Z,64.76
2023-02-11T21:45:17.352Z,65.08
2023-02-11T21:48:24.007Z,65.42
2023-02-11T21:51:29.997Z,65.88
2023-02-11T21:54:34.611Z,66.19
2023-02-11T21:57:39.573Z,66.21
2023-02-11T22:00:42.898Z,66.75
2023-02-11T22:03:54.745Z,66.77
2023-02-11T22:07:01.510Z,66.89
2023-02-11T22:10:13.075Z,67.31
2023-02-11T22:13:20.835Z,67.33
2023-02-11T22:16:25.373Z,68.12
2023-02-11T22:19:33.699Z,68.31
2023-02-11T22:22:38.782Z,68.78
2023-02-11T22:25:41.908Z,69.89
2023-02-11T22:28:45.936Z,69.97
2023-02-11T22:31:49.403Z,71.07
2023-02-11T22:34:53.515Z,71.93
2023-02-11T22:37:59.716Z,72.28
2023-02-11T22:41:13.764Z,72.04
2023-02-11T22:44:26.952Z,73.25
2023-02-11T22:47:32.162Z,73.10
2023-02-11T22:50:36.312Z,73.91
2023-02-11T22:53:40.651Z,74.80
2023-02-11T22:56:51.331Z,75.84
2023-02-11T22:59:55.555Z,75.44
2023-02-11T23:02:59.202Z,75.99
2023-02-11T23:06:03.790Z,76.63
2023-02-11T23:09:09.592Z,77.27
2023-02-11T23:12:15.563Z,77.66
2023-02-11T23:15:18.726Z,77.29
2023-02-11T23:18:22.099Z,78.73
2023-02-11T23:21:27.831Z,77.79
2023-02-11T23:24:31.972Z,78.23
2023-02-11T23:27:34.789Z,78.97
2023-02-11T23:30:38.495Z,79.01
2023-02-11T23:33:42.180Z,79.96
2023-02-11T23:36:45.233Z,80.02
2023-02-11T23:39:50.065Z,79.80
2023-02-11T23:42:55.827Z,79.96
2023-02-11T23:46:00.712Z,80.73
2023-02-11T23:49:10.151Z,80.31
2023-02-11T23:52:13.136Z,81.07
2023-02-11T23:55:16.404Z,80.54
2023-02-11T23:58:19.216Z,80.59
